sensor_id;sensor_type;location;lat;lon;timestamp;P1;durP1;ratioP1;P2;durP2;ratioP2
6406;SDS011;3236;51.022;6.818;2022-08-19T00:01:26;14.65;;;11.38;;
6406;SDS011;3236;51.022;6.818;2022-08-19T00:03:54;19.75;;;12.45;;
6406;SDS011;3236;51.022;6.818;2022-08-19T00:06:21;15.57;;;11.90;;
6406;SDS011;3236;51.022;6.818;2022-08-19T00:08:51;17.17;;;12.45;;
6406;SDS011;3236;51.022;6.818;2022-08-19T00:11:18;21.80;;;13.30;;
6406;SDS011;3236;51.022;6.818;2022-08-19T00:13:45;17.00;;;14.23;;
6406;SDS011;3236;51.022;6.818;2022-08-19T00:16:15;17.85;;;14.52;;
6406;SDS011;3236;51.022;6.818;2022-08-19T00:18:47;22.38;;;14.93;;
6406;SDS011;3236;51.022;6.818;2022-08-19T00:21:14;19.17;;;14.43;;
6406;SDS011;3236;51.022;6.818;2022-08-19T00:23:42;21.15;;;16.60;;
6406;SDS011;3236;51.022;6.818;2022-08-19T00:26:09;19.98;;;15.55;;
6406;SDS011;3236;51.022;6.818;2022-08-19T00:28:37;23.30;;;16.20;;
6406;SDS011;3236;51.022;6.818;2022-08-19T00:31:04;20.88;;;15.85;;
6406;SDS011;3236;51.022;6.818;2022-08-19T00:33:33;22.27;;;15.80;;
6406;SDS011;3236;51.022;6.818;2022-08-19T00:36:02;19.15;;;15.75;;
6406;SDS011;3236;51.022;6.818;2022-08-19T00:38:32;18.17;;;15.00;;
6406;SDS011;3236;51.022;6.818;2022-08-19T00:40:59;22.38;;;15.77;;
6406;SDS011;3236;51.022;6.818;2022-08-19T00:43:26;19.90;;;15.15;;
6406;SDS011;3236;51.022;6.818;2022-08-19T00:45:53;23.35;;;15.88;;
6406;SDS011;3236;51.022;6.818;2022-08-19T00:48:21;24.98;;;16.35;;
6406;SDS011;3236;51.022;6.818;2022-08-19T00:50:48;22.98;;;16.52;;
6406;SDS011;3236;51.022;6.818;2022-08-19T00:53:20;26.20;;;17.00;;
6406;SDS011;3236;51.022;6.818;2022-08-19T00:55:52;22.40;;;16.83;;
6406;SDS011;3236;51.022;6.818;2022-08-19T00:58:22;22.02;;;17.50;;
6406;SDS011;3236;51.022;6.818;2022-08-19T01:00:54;23.05;;;17.52;;
6406;SDS011;3236;51.022;6.818;2022-08-19T01:03:22;23.08;;;15.55;;
6406;SDS011;3236;51.022;6.818;2022-08-19T01:05:49;23.88;;;17.13;;
6406;SDS011;3236;51.022;6.818;2022-08-19T01:08:19;22.00;;;16.88;;
6406;SDS011;3236;51.022;6.818;2022-08-19T01:10:47;25.52;;;19.52;;
6406;SDS011;3236;51.022;6.818;2022-08-19T01:13:24;21.05;;;16.13;;
6406;SDS011;3236;51.022;6.818;2022-08-19T01:15:54;24.98;;;17.60;;
6406;SDS011;3236;51.022;6.818;2022-08-19T01:18:23;25.00;;;17.77;;
6406;SDS011;3236;51.022;6.818;2022-08-19T01:20:53;26.45;;;17.60;;
6406;SDS011;3236;51.022;6.818;2022-08-19T01:23:24;24.85;;;17.23;;
6406;SDS011;3236;51.022;6.818;2022-08-19T01:26:08;22.98;;;16.67;;
6406;SDS011;3236;51.022;6.818;2022-08-19T01:28:36;25.17;;;16.83;;
6406;SDS011;3236;51.022;6.818;2022-08-19T01:31:04;29.77;;;17.42;;
6406;SDS011;3236;51.022;6.818;2022-08-19T01:33:32;22.42;;;17.25;;
6406;SDS011;3236;51.022;6.818;2022-08-19T01:36:06;22.48;;;16.02;;
6406;SDS011;3236;51.022;6.818;2022-08-19T01:38:37;23.42;;;16.60;;
6406;SDS011;3236;51.022;6.818;2022-08-19T01:41:06;23.83;;;16.52;;
6406;SDS011;3236;51.022;6.818;2022-08-19T01:43:34;22.25;;;16.73;;
6406;SDS011;3236;51.022;6.818;2022-08-19T01:46:01;25.83;;;15.75;;
6406;SDS011;3236;51.022;6.818;2022-08-19T01:48:32;24.13;;;17.05;;
6406;SDS011;3236;51.022;6.818;2022-08-19T01:51:00;24.52;;;16.90;;
6406;SDS011;3236;51.022;6.818;2022-08-19T01:53:27;26.58;;;18.77;;
6406;SDS011;3236;51.022;6.818;2022-08-19T01:55:56;26.63;;;17.77;;
6406;SDS011;3236;51.022;6.818;2022-08-19T01:58:24;24.65;;;18.15;;
6406;SDS011;3236;51.022;6.818;2022-08-19T02:00:55;27.30;;;19.40;;
6406;SDS011;3236;51.022;6.818;2022-08-19T02:03:23;30.55;;;20.15;;
6406;SDS011;3236;51.022;6.818;2022-08-19T02:05:53;33.22;;;20.60;;
6406;SDS011;3236;51.022;6.818;2022-08-19T02:08:26;32.33;;;21.67;;
6406;SDS011;3236;51.022;6.818;2022-08-19T02:13:22;31.42;;;20.38;;
6406;SDS011;3236;51.022;6.818;2022-08-19T02:15:49;36.28;;;22.55;;
6406;SDS011;3236;51.022;6.818;2022-08-19T02:18:16;34.30;;;23.27;;
6406;SDS011;3236;51.022;6.818;2022-08-19T02:20:44;34.78;;;22.65;;
6406;SDS011;3236;51.022;6.818;2022-08-19T02:23:12;33.28;;;21.65;;
6406;SDS011;3236;51.022;6.818;2022-08-19T02:25:40;30.05;;;22.48;;
6406;SDS011;3236;51.022;6.818;2022-08-19T02:28:09;29.38;;;22.05;;
6406;SDS011;3236;51.022;6.818;2022-08-19T02:30:39;37.70;;;23.92;;
6406;SDS011;3236;51.022;6.818;2022-08-19T02:33:07;35.53;;;22.92;;
6406;SDS011;3236;51.022;6.818;2022-08-19T02:35:34;36.08;;;23.05;;
6406;SDS011;3236;51.022;6.818;2022-08-19T02:38:01;32.92;;;23.33;;
6406;SDS011;3236;51.022;6.818;2022-08-19T02:40:49;35.28;;;24.52;;
6406;SDS011;3236;51.022;6.818;2022-08-19T02:43:18;36.08;;;26.00;;
6406;SDS011;3236;51.022;6.818;2022-08-19T02:45:48;35.60;;;25.02;;
6406;SDS011;3236;51.022;6.818;2022-08-19T02:48:16;36.70;;;27.38;;
6406;SDS011;3236;51.022;6.818;2022-08-19T02:50:45;44.15;;;26.73;;
6406;SDS011;3236;51.022;6.818;2022-08-19T02:53:13;38.45;;;26.20;;
6406;SDS011;3236;51.022;6.818;2022-08-19T02:55:44;39.20;;;27.02;;
6406;SDS011;3236;51.022;6.818;2022-08-19T02:58:12;46.35;;;28.73;;
6406;SDS011;3236;51.022;6.818;2022-08-19T03:00:41;45.42;;;28.92;;
6406;SDS011;3236;51.022;6.818;2022-08-19T03:03:13;41.80;;;29.63;;
6406;SDS011;3236;51.022;6.818;2022-08-19T03:05:41;41.58;;;28.88;;
6406;SDS011;3236;51.022;6.818;2022-08-19T03:08:08;43.58;;;30.00;;
6406;SDS011;3236;51.022;6.818;2022-08-19T03:10:41;44.20;;;30.23;;
6406;SDS011;3236;51.022;6.818;2022-08-19T03:13:13;47.10;;;33.33;;
6406;SDS011;3236;51.022;6.818;2022-08-19T03:15:42;48.28;;;31.92;;
6406;SDS011;3236;51.022;6.818;2022-08-19T03:18:12;48.55;;;33.58;;
6406;SDS011;3236;51.022;6.818;2022-08-19T03:20:42;48.72;;;34.33;;
6406;SDS011;3236;51.022;6.818;2022-08-19T03:23:09;50.60;;;34.28;;
6406;SDS011;3236;51.022;6.818;2022-08-19T03:25:41;50.15;;;35.08;;
6406;SDS011;3236;51.022;6.818;2022-08-19T03:28:11;51.03;;;34.33;;
6406;SDS011;3236;51.022;6.818;2022-08-19T03:30:42;54.00;;;37.50;;
6406;SDS011;3236;51.022;6.818;2022-08-19T03:33:23;56.03;;;37.65;;
6406;SDS011;3236;51.022;6.818;2022-08-19T03:35:59;55.92;;;38.20;;
6406;SDS011;3236;51.022;6.818;2022-08-19T03:38:35;56.70;;;38.25;;
6406;SDS011;3236;51.022;6.818;2022-08-19T03:41:06;57.10;;;38.85;;
6406;SDS011;3236;51.022;6.818;2022-08-19T03:43:38;60.70;;;39.28;;
6406;SDS011;3236;51.022;6.818;2022-08-19T03:46:06;62.78;;;40.67;;
6406;SDS011;3236;51.022;6.818;2022-08-19T03:48:40;61.20;;;41.40;;
6406;SDS011;3236;51.022;6.818;2022-08-19T03:51:15;63.20;;;42.03;;
6406;SDS011;3236;51.022;6.818;2022-08-19T03:53:44;66.82;;;41.47;;
6406;SDS011;3236;51.022;6.818;2022-08-19T03:56:14;66.10;;;43.20;;
6406;SDS011;3236;51.022;6.818;2022-08-19T03:58:41;63.20;;;40.97;;
6406;SDS011;3236;51.022;6.818;2022-08-19T04:01:09;64.30;;;44.25;;
6406;SDS011;3236;51.022;6.818;2022-08-19T04:03:38;65.35;;;42.45;;
6406;SDS011;3236;51.022;6.818;2022-08-19T04:06:10;61.97;;;42.67;;
6406;SDS011;3236;51.022;6.818;2022-08-19T04:08:38;67.97;;;45.10;;
6406;SDS011;3236;51.022;6.818;2022-08-19T04:11:07;69.13;;;43.83;;
6406;SDS011;3236;51.022;6.818;2022-08-19T04:13:34;64.05;;;43.80;;
6406;SDS011;3236;51.022;6.818;2022-08-19T04:16:01;60.83;;;42.03;;
6406;SDS011;3236;51.022;6.818;2022-08-19T04:18:29;67.22;;;44.20;;
6406;SDS011;3236;51.022;6.818;2022-08-19T04:20:57;65.30;;;43.40;;
6406;SDS011;3236;51.022;6.818;2022-08-19T04:23:25;60.80;;;38.65;;
6406;SDS011;3236;51.022;6.818;2022-08-19T04:25:53;55.10;;;36.38;;
6406;SDS011;3236;51.022;6.818;2022-08-19T04:28:21;56.10;;;36.75;;
6406;SDS011;3236;51.022;6.818;2022-08-19T04:30:49;54.72;;;38.60;;
6406;SDS011;3236;51.022;6.818;2022-08-19T04:33:19;59.80;;;39.03;;
6406;SDS011;3236;51.022;6.818;2022-08-19T04:35:47;56.25;;;38.33;;
6406;SDS011;3236;51.022;6.818;2022-08-19T04:38:17;54.13;;;38.45;;
6406;SDS011;3236;51.022;6.818;2022-08-19T04:40:49;61.88;;;39.65;;
6406;SDS011;3236;51.022;6.818;2022-08-19T04:43:45;66.28;;;42.55;;
6406;SDS011;3236;51.022;6.818;2022-08-19T04:46:14;66.90;;;42.08;;
6406;SDS011;3236;51.022;6.818;2022-08-19T04:48:41;67.25;;;43.45;;
6406;SDS011;3236;51.022;6.818;2022-08-19T04:51:10;65.32;;;44.38;;
6406;SDS011;3236;51.022;6.818;2022-08-19T04:53:40;70.63;;;45.28;;
6406;SDS011;3236;51.022;6.818;2022-08-19T04:56:09;72.30;;;44.67;;
6406;SDS011;3236;51.022;6.818;2022-08-19T04:58:39;65.40;;;42.97;;
6406;SDS011;3236;51.022;6.818;2022-08-19T05:01:07;64.75;;;43.28;;
6406;SDS011;3236;51.022;6.818;2022-08-19T05:03:35;73.10;;;47.10;;
6406;SDS011;3236;51.022;6.818;2022-08-19T05:06:06;73.40;;;46.78;;
6406;SDS011;3236;51.022;6.818;2022-08-19T05:08:35;67.47;;;44.58;;
6406;SDS011;3236;51.022;6.818;2022-08-19T05:11:14;70.28;;;45.30;;
6406;SDS011;3236;51.022;6.818;2022-08-19T05:13:46;74.60;;;47.38;;
6406;SDS011;3236;51.022;6.818;2022-08-19T05:16:15;65.32;;;43.47;;
6406;SDS011;3236;51.022;6.818;2022-08-19T05:18:44;61.72;;;42.83;;
6406;SDS011;3236;51.022;6.818;2022-08-19T05:21:29;64.38;;;41.92;;
6406;SDS011;3236;51.022;6.818;2022-08-19T05:24:15;65.32;;;42.75;;
6406;SDS011;3236;51.022;6.818;2022-08-19T05:26:44;72.93;;;45.08;;
6406;SDS011;3236;51.022;6.818;2022-08-19T05:29:20;74.93;;;44.70;;
6406;SDS011;3236;51.022;6.818;2022-08-19T05:31:48;68.90;;;46.53;;
6406;SDS011;3236;51.022;6.818;2022-08-19T05:34:15;74.50;;;46.08;;
6406;SDS011;3236;51.022;6.818;2022-08-19T05:36:44;67.80;;;43.90;;
6406;SDS011;3236;51.022;6.818;2022-08-19T05:39:12;71.40;;;46.05;;
6406;SDS011;3236;51.022;6.818;2022-08-19T05:41:41;70.43;;;44.78;;
6406;SDS011;3236;51.022;6.818;2022-08-19T05:44:10;67.03;;;44.65;;
6406;SDS011;3236;51.022;6.818;2022-08-19T05:46:37;71.18;;;45.83;;
6406;SDS011;3236;51.022;6.818;2022-08-19T05:49:08;70.15;;;43.85;;
6406;SDS011;3236;51.022;6.818;2022-08-19T05:51:35;68.38;;;42.35;;
6406;SDS011;3236;51.022;6.818;2022-08-19T05:54:03;68.78;;;43.90;;
6406;SDS011;3236;51.022;6.818;2022-08-19T05:56:32;68.28;;;43.22;;
6406;SDS011;3236;51.022;6.818;2022-08-19T05:59:03;65.63;;;44.30;;
6406;SDS011;3236;51.022;6.818;2022-08-19T06:01:37;65.53;;;42.50;;
6406;SDS011;3236;51.022;6.818;2022-08-19T06:04:07;66.63;;;43.78;;
6406;SDS011;3236;51.022;6.818;2022-08-19T06:06:34;61.58;;;41.58;;
6406;SDS011;3236;51.022;6.818;2022-08-19T06:09:03;63.17;;;42.72;;
6406;SDS011;3236;51.022;6.818;2022-08-19T06:11:32;63.95;;;42.00;;
6406;SDS011;3236;51.022;6.818;2022-08-19T06:14:02;60.58;;;39.67;;
6406;SDS011;3236;51.022;6.818;2022-08-19T06:16:37;66.90;;;42.40;;
6406;SDS011;3236;51.022;6.818;2022-08-19T06:19:06;64.50;;;41.55;;
6406;SDS011;3236;51.022;6.818;2022-08-19T06:21:35;62.17;;;40.90;;
6406;SDS011;3236;51.022;6.818;2022-08-19T06:24:06;57.40;;;40.65;;
6406;SDS011;3236;51.022;6.818;2022-08-19T06:26:35;58.13;;;40.83;;
6406;SDS011;3236;51.022;6.818;2022-08-19T06:29:05;61.90;;;40.05;;
6406;SDS011;3236;51.022;6.818;2022-08-19T06:31:34;56.55;;;38.97;;
6406;SDS011;3236;51.022;6.818;2022-08-19T06:34:04;52.00;;;34.10;;
6406;SDS011;3236;51.022;6.818;2022-08-19T06:36:32;55.13;;;38.63;;
6406;SDS011;3236;51.022;6.818;2022-08-19T06:39:07;65.95;;;40.03;;
6406;SDS011;3236;51.022;6.818;2022-08-19T06:44:06;54.50;;;37.58;;
6406;SDS011;3236;51.022;6.818;2022-08-19T06:46:33;53.70;;;33.58;;
6406;SDS011;3236;51.022;6.818;2022-08-19T06:49:01;56.20;;;35.28;;
6406;SDS011;3236;51.022;6.818;2022-08-19T06:51:30;55.17;;;36.15;;
6406;SDS011;3236;51.022;6.818;2022-08-19T06:54:02;52.92;;;35.15;;
6406;SDS011;3236;51.022;6.818;2022-08-19T06:56:32;56.95;;;37.42;;
6406;SDS011;3236;51.022;6.818;2022-08-19T06:59:00;55.67;;;37.72;;
6406;SDS011;3236;51.022;6.818;2022-08-19T07:01:30;60.35;;;35.63;;
6406;SDS011;3236;51.022;6.818;2022-08-19T07:04:00;77.15;;;38.95;;
6406;SDS011;3236;51.022;6.818;2022-08-19T07:06:29;56.85;;;35.88;;
6406;SDS011;3236;51.022;6.818;2022-08-19T07:08:56;64.72;;;36.35;;
6406;SDS011;3236;51.022;6.818;2022-08-19T07:11:24;69.97;;;40.58;;
6406;SDS011;3236;51.022;6.818;2022-08-19T07:13:51;63.03;;;41.22;;
6406;SDS011;3236;51.022;6.818;2022-08-19T07:16:19;71.30;;;40.83;;
6406;SDS011;3236;51.022;6.818;2022-08-19T07:18:47;63.97;;;39.97;;
6406;SDS011;3236;51.022;6.818;2022-08-19T07:21:14;76.40;;;43.70;;
6406;SDS011;3236;51.022;6.818;2022-08-19T07:23:45;71.38;;;42.78;;
6406;SDS011;3236;51.022;6.818;2022-08-19T07:26:13;73.07;;;42.70;;
6406;SDS011;3236;51.022;6.818;2022-08-19T07:28:41;80.05;;;43.45;;
6406;SDS011;3236;51.022;6.818;2022-08-19T07:31:10;79.68;;;46.55;;
6406;SDS011;3236;51.022;6.818;2022-08-19T07:33:38;70.38;;;44.10;;
6406;SDS011;3236;51.022;6.818;2022-08-19T07:36:06;74.35;;;45.20;;
6406;SDS011;3236;51.022;6.818;2022-08-19T07:38:36;78.13;;;42.97;;
6406;SDS011;3236;51.022;6.818;2022-08-19T07:41:06;74.15;;;43.80;;
6406;SDS011;3236;51.022;6.818;2022-08-19T07:43:33;80.60;;;48.08;;
6406;SDS011;3236;51.022;6.818;2022-08-19T07:46:00;81.65;;;46.10;;
6406;SDS011;3236;51.022;6.818;2022-08-19T07:48:28;77.45;;;45.85;;
6406;SDS011;3236;51.022;6.818;2022-08-19T07:50:56;83.22;;;46.40;;
6406;SDS011;3236;51.022;6.818;2022-08-19T07:53:27;78.18;;;46.80;;
6406;SDS011;3236;51.022;6.818;2022-08-19T07:55:55;90.95;;;49.80;;
6406;SDS011;3236;51.022;6.818;2022-08-19T07:58:25;83.10;;;47.03;;
6406;SDS011;3236;51.022;6.818;2022-08-19T08:00:53;78.28;;;46.65;;
6406;SDS011;3236;51.022;6.818;2022-08-19T08:03:21;86.05;;;48.40;;
6406;SDS011;3236;51.022;6.818;2022-08-19T08:06:09;89.47;;;51.38;;
6406;SDS011;3236;51.022;6.818;2022-08-19T08:08:54;83.20;;;43.63;;
6406;SDS011;3236;51.022;6.818;2022-08-19T08:11:37;81.72;;;47.22;;
6406;SDS011;3236;51.022;6.818;2022-08-19T08:14:06;85.18;;;48.85;;
6406;SDS011;3236;51.022;6.818;2022-08-19T08:16:34;83.32;;;47.03;;
6406;SDS011;3236;51.022;6.818;2022-08-19T08:19:02;81.80;;;45.22;;
6406;SDS011;3236;51.022;6.818;2022-08-19T08:21:30;83.38;;;46.47;;
6406;SDS011;3236;51.022;6.818;2022-08-19T08:23:57;78.45;;;43.90;;
6406;SDS011;3236;51.022;6.818;2022-08-19T08:26:24;82.95;;;46.17;;
6406;SDS011;3236;51.022;6.818;2022-08-19T08:28:51;73.05;;;42.67;;
6406;SDS011;3236;51.022;6.818;2022-08-19T08:31:20;82.03;;;46.53;;
6406;SDS011;3236;51.022;6.818;2022-08-19T08:33:48;82.43;;;44.85;;
6406;SDS011;3236;51.022;6.818;2022-08-19T08:36:16;78.78;;;40.70;;
6406;SDS011;3236;51.022;6.818;2022-08-19T08:38:43;85.43;;;44.20;;
6406;SDS011;3236;51.022;6.818;2022-08-19T08:41:13;62.28;;;33.42;;
6406;SDS011;3236;51.022;6.818;2022-08-19T08:43:49;67.35;;;40.90;;
6406;SDS011;3236;51.022;6.818;2022-08-19T08:46:21;69.10;;;40.28;;
6406;SDS011;3236;51.022;6.818;2022-08-19T08:48:53;70.93;;;38.50;;
6406;SDS011;3236;51.022;6.818;2022-08-19T08:51:26;66.72;;;36.10;;
6406;SDS011;3236;51.022;6.818;2022-08-19T08:53:59;67.68;;;36.83;;
6406;SDS011;3236;51.022;6.818;2022-08-19T08:56:30;70.25;;;37.72;;
6406;SDS011;3236;51.022;6.818;2022-08-19T08:58:58;62.47;;;36.20;;
6406;SDS011;3236;51.022;6.818;2022-08-19T09:01:30;64.53;;;36.58;;
6406;SDS011;3236;51.022;6.818;2022-08-19T09:03:58;63.13;;;37.95;;
6406;SDS011;3236;51.022;6.818;2022-08-19T09:06:27;67.68;;;36.90;;
6406;SDS011;3236;51.022;6.818;2022-08-19T09:09:03;53.92;;;32.30;;
6406;SDS011;3236;51.022;6.818;2022-08-19T09:11:42;59.75;;;34.72;;
6406;SDS011;3236;51.022;6.818;2022-08-19T09:14:23;57.78;;;32.58;;
6406;SDS011;3236;51.022;6.818;2022-08-19T09:17:01;57.85;;;31.20;;
6406;SDS011;3236;51.022;6.818;2022-08-19T09:19:28;50.20;;;29.73;;
6406;SDS011;3236;51.022;6.818;2022-08-19T09:21:56;45.70;;;28.95;;
6406;SDS011;3236;51.022;6.818;2022-08-19T09:24:25;52.35;;;31.45;;
6406;SDS011;3236;51.022;6.818;2022-08-19T09:26:52;45.45;;;27.15;;
6406;SDS011;3236;51.022;6.818;2022-08-19T09:29:20;43.05;;;25.27;;
6406;SDS011;3236;51.022;6.818;2022-08-19T09:31:47;47.65;;;26.92;;
6406;SDS011;3236;51.022;6.818;2022-08-19T09:34:15;47.58;;;25.50;;
6406;SDS011;3236;51.022;6.818;2022-08-19T09:36:45;42.33;;;25.92;;
6406;SDS011;3236;51.022;6.818;2022-08-19T09:39:11;43.17;;;23.70;;
6406;SDS011;3236;51.022;6.818;2022-08-19T09:41:38;36.03;;;24.30;;
6406;SDS011;3236;51.022;6.818;2022-08-19T09:44:05;40.65;;;23.83;;
6406;SDS011;3236;51.022;6.818;2022-08-19T09:46:33;36.35;;;18.85;;
6406;SDS011;3236;51.022;6.818;2022-08-19T09:49:01;27.98;;;18.15;;
6406;SDS011;3236;51.022;6.818;2022-08-19T09:51:32;27.83;;;19.67;;
6406;SDS011;3236;51.022;6.818;2022-08-19T09:54:00;34.63;;;19.27;;
6406;SDS011;3236;51.022;6.818;2022-08-19T09:56:31;31.73;;;18.00;;
6406;SDS011;3236;51.022;6.818;2022-08-19T09:59:02;27.42;;;16.95;;
6406;SDS011;3236;51.022;6.818;2022-08-19T10:01:30;24.97;;;16.67;;
6406;SDS011;3236;51.022;6.818;2022-08-19T10:03:59;20.50;;;12.98;;
6406;SDS011;3236;51.022;6.818;2022-08-19T10:06:27;23.63;;;13.95;;
6406;SDS011;3236;51.022;6.818;2022-08-19T10:08:59;24.05;;;16.25;;
6406;SDS011;3236;51.022;6.818;2022-08-19T10:11:26;24.45;;;14.20;;
6406;SDS011;3236;51.022;6.818;2022-08-19T10:13:54;26.00;;;15.13;;
6406;SDS011;3236;51.022;6.818;2022-08-19T10:16:22;26.00;;;15.95;;
6406;SDS011;3236;51.022;6.818;2022-08-19T10:18:50;27.98;;;18.45;;
6406;SDS011;3236;51.022;6.818;2022-08-19T10:21:23;23.23;;;17.10;;
6406;SDS011;3236;51.022;6.818;2022-08-19T10:23:52;25.10;;;16.63;;
6406;SDS011;3236;51.022;6.818;2022-08-19T10:26:28;25.38;;;16.52;;
6406;SDS011;3236;51.022;6.818;2022-08-19T10:29:02;27.48;;;18.90;;
6406;SDS011;3236;51.022;6.818;2022-08-19T10:31:31;25.67;;;17.45;;
6406;SDS011;3236;51.022;6.818;2022-08-19T10:34:00;25.83;;;19.20;;
6406;SDS011;3236;51.022;6.818;2022-08-19T10:36:28;24.23;;;17.42;;
6406;SDS011;3236;51.022;6.818;2022-08-19T10:38:58;29.13;;;18.73;;
6406;SDS011;3236;51.022;6.818;2022-08-19T10:41:29;26.95;;;19.00;;
6406;SDS011;3236;51.022;6.818;2022-08-19T10:43:58;30.77;;;17.37;;
6406;SDS011;3236;51.022;6.818;2022-08-19T10:46:27;31.90;;;18.45;;
6406;SDS011;3236;51.022;6.818;2022-08-19T10:48:56;24.58;;;17.70;;
6406;SDS011;3236;51.022;6.818;2022-08-19T10:51:23;24.88;;;19.30;;
6406;SDS011;3236;51.022;6.818;2022-08-19T10:54:08;27.17;;;18.10;;
6406;SDS011;3236;51.022;6.818;2022-08-19T10:56:37;26.00;;;16.95;;
6406;SDS011;3236;51.022;6.818;2022-08-19T10:59:18;25.48;;;17.83;;
6406;SDS011;3236;51.022;6.818;2022-08-19T11:01:48;23.60;;;17.20;;
6406;SDS011;3236;51.022;6.818;2022-08-19T11:04:17;23.23;;;17.88;;
6406;SDS011;3236;51.022;6.818;2022-08-19T11:06:45;21.75;;;15.27;;
6406;SDS011;3236;51.022;6.818;2022-08-19T11:09:14;20.75;;;13.80;;
6406;SDS011;3236;51.022;6.818;2022-08-19T11:11:43;22.25;;;14.35;;
6406;SDS011;3236;51.022;6.818;2022-08-19T11:14:13;16.98;;;12.10;;
6406;SDS011;3236;51.022;6.818;2022-08-19T11:16:43;18.08;;;14.20;;
6406;SDS011;3236;51.022;6.818;2022-08-19T11:19:10;18.50;;;13.45;;
6406;SDS011;3236;51.022;6.818;2022-08-19T11:21:39;18.88;;;12.63;;
6406;SDS011;3236;51.022;6.818;2022-08-19T11:24:08;14.77;;;11.93;;
6406;SDS011;3236;51.022;6.818;2022-08-19T11:26:37;11.65;;;9.98;;
6406;SDS011;3236;51.022;6.818;2022-08-19T11:29:07;14.35;;;10.65;;
6406;SDS011;3236;51.022;6.818;2022-08-19T11:31:38;14.20;;;11.10;;
6406;SDS011;3236;51.022;6.818;2022-08-19T11:34:06;15.23;;;11.82;;
6406;SDS011;3236;51.022;6.818;2022-08-19T11:36:36;16.85;;;12.88;;
6406;SDS011;3236;51.022;6.818;2022-08-19T11:39:04;18.33;;;14.77;;
6406;SDS011;3236;51.022;6.818;2022-08-19T11:41:33;15.35;;;12.45;;
6406;SDS011;3236;51.022;6.818;2022-08-19T11:44:00;21.02;;;13.27;;
6406;SDS011;3236;51.022;6.818;2022-08-19T11:46:30;17.60;;;12.73;;
6406;SDS011;3236;51.022;6.818;2022-08-19T11:49:01;14.27;;;11.15;;
6406;SDS011;3236;51.022;6.818;2022-08-19T11:51:28;15.43;;;10.65;;
6406;SDS011;3236;51.022;6.818;2022-08-19T11:53:56;18.05;;;10.38;;
6406;SDS011;3236;51.022;6.818;2022-08-19T11:56:24;13.10;;;10.02;;
6406;SDS011;3236;51.022;6.818;2022-08-19T11:58:54;15.50;;;10.35;;
6406;SDS011;3236;51.022;6.818;2022-08-19T12:01:24;13.88;;;9.68;;
6406;SDS011;3236;51.022;6.818;2022-08-19T12:03:53;14.68;;;9.90;;
6406;SDS011;3236;51.022;6.818;2022-08-19T12:06:25;16.67;;;10.90;;
6406;SDS011;3236;51.022;6.818;2022-08-19T12:08:54;13.65;;;9.40;;
6406;SDS011;3236;51.022;6.818;2022-08-19T12:11:22;16.38;;;11.27;;
6406;SDS011;3236;51.022;6.818;2022-08-19T12:13:49;15.65;;;10.18;;
6406;SDS011;3236;51.022;6.818;2022-08-19T12:16:18;13.48;;;10.80;;
6406;SDS011;3236;51.022;6.818;2022-08-19T12:18:46;17.58;;;10.88;;
6406;SDS011;3236;51.022;6.818;2022-08-19T12:21:18;24.63;;;11.40;;
6406;SDS011;3236;51.022;6.818;2022-08-19T12:26:14;17.67;;;11.52;;
6406;SDS011;3236;51.022;6.818;2022-08-19T12:28:42;16.75;;;11.10;;
6406;SDS011;3236;51.022;6.818;2022-08-19T12:31:09;16.33;;;10.63;;
6406;SDS011;3236;51.022;6.818;2022-08-19T12:33:37;16.73;;;9.82;;
6406;SDS011;3236;51.022;6.818;2022-08-19T12:36:05;16.88;;;10.45;;
6406;SDS011;3236;51.022;6.818;2022-08-19T12:38:37;14.27;;;10.10;;
6406;SDS011;3236;51.022;6.818;2022-08-19T12:41:09;17.63;;;10.82;;
6406;SDS011;3236;51.022;6.818;2022-08-19T12:43:38;16.05;;;11.10;;
6406;SDS011;3236;51.022;6.818;2022-08-19T12:46:06;17.67;;;10.60;;
6406;SDS011;3236;51.022;6.818;2022-08-19T12:48:34;16.60;;;9.85;;
6406;SDS011;3236;51.022;6.818;2022-08-19T12:51:05;13.88;;;10.20;;
6406;SDS011;3236;51.022;6.818;2022-08-19T12:53:33;14.10;;;9.25;;
6406;SDS011;3236;51.022;6.818;2022-08-19T12:56:02;14.65;;;9.93;;
6406;SDS011;3236;51.022;6.818;2022-08-19T12:58:32;14.32;;;10.00;;
6406;SDS011;3236;51.022;6.818;2022-08-19T13:01:05;15.23;;;10.40;;
6406;SDS011;3236;51.022;6.818;2022-08-19T13:03:33;12.93;;;9.48;;
6406;SDS011;3236;51.022;6.818;2022-08-19T13:06:00;14.38;;;10.20;;
6406;SDS011;3236;51.022;6.818;2022-08-19T13:08:27;13.57;;;9.80;;
6406;SDS011;3236;51.022;6.818;2022-08-19T13:10:54;12.07;;;7.53;;
6406;SDS011;3236;51.022;6.818;2022-08-19T13:13:22;11.52;;;8.20;;
6406;SDS011;3236;51.022;6.818;2022-08-19T13:15:51;10.63;;;8.23;;
6406;SDS011;3236;51.022;6.818;2022-08-19T13:18:18;13.95;;;8.65;;
6406;SDS011;3236;51.022;6.818;2022-08-19T13:20:45;12.40;;;8.02;;
6406;SDS011;3236;51.022;6.818;2022-08-19T13:23:12;12.88;;;8.18;;
6406;SDS011;3236;51.022;6.818;2022-08-19T13:25:39;11.77;;;6.95;;
6406;SDS011;3236;51.022;6.818;2022-08-19T13:28:06;8.63;;;6.78;;
6406;SDS011;3236;51.022;6.818;2022-08-19T13:30:34;10.60;;;6.50;;
6406;SDS011;3236;51.022;6.818;2022-08-19T13:33:19;7.97;;;5.65;;
6406;SDS011;3236;51.022;6.818;2022-08-19T13:35:47;7.00;;;5.55;;
6406;SDS011;3236;51.022;6.818;2022-08-19T13:38:15;8.18;;;6.53;;
6406;SDS011;3236;51.022;6.818;2022-08-19T13:40:44;10.18;;;7.18;;
6406;SDS011;3236;51.022;6.818;2022-08-19T13:43:12;12.48;;;7.63;;
6406;SDS011;3236;51.022;6.818;2022-08-19T13:45:41;9.40;;;7.10;;
6406;SDS011;3236;51.022;6.818;2022-08-19T13:48:08;9.45;;;6.82;;
6406;SDS011;3236;51.022;6.818;2022-08-19T13:50:37;8.88;;;5.45;;
6406;SDS011;3236;51.022;6.818;2022-08-19T13:53:06;14.45;;;6.00;;
6406;SDS011;3236;51.022;6.818;2022-08-19T13:55:34;7.82;;;5.65;;
6406;SDS011;3236;51.022;6.818;2022-08-19T13:58:03;7.15;;;5.82;;
6406;SDS011;3236;51.022;6.818;2022-08-19T14:00:34;11.55;;;5.72;;
6406;SDS011;3236;51.022;6.818;2022-08-19T14:03:03;10.00;;;6.32;;
6406;SDS011;3236;51.022;6.818;2022-08-19T14:05:31;8.05;;;5.78;;
6406;SDS011;3236;51.022;6.818;2022-08-19T14:07:59;6.78;;;5.53;;
6406;SDS011;3236;51.022;6.818;2022-08-19T14:10:26;9.15;;;5.18;;
6406;SDS011;3236;51.022;6.818;2022-08-19T14:12:56;12.00;;;5.20;;
6406;SDS011;3236;51.022;6.818;2022-08-19T14:15:25;10.00;;;5.22;;
6406;SDS011;3236;51.022;6.818;2022-08-19T14:17:52;10.95;;;5.65;;
6406;SDS011;3236;51.022;6.818;2022-08-19T14:20:21;10.73;;;6.05;;
6406;SDS011;3236;51.022;6.818;2022-08-19T14:22:49;8.30;;;4.75;;
6406;SDS011;3236;51.022;6.818;2022-08-19T14:25:17;8.73;;;4.50;;
6406;SDS011;3236;51.022;6.818;2022-08-19T14:27:48;6.88;;;4.90;;
6406;SDS011;3236;51.022;6.818;2022-08-19T14:30:17;12.07;;;5.80;;
6406;SDS011;3236;51.022;6.818;2022-08-19T14:32:45;6.80;;;4.00;;
6406;SDS011;3236;51.022;6.818;2022-08-19T14:35:13;6.22;;;4.07;;
6406;SDS011;3236;51.022;6.818;2022-08-19T14:37:42;5.93;;;4.18;;
6406;SDS011;3236;51.022;6.818;2022-08-19T14:40:11;6.18;;;4.05;;
6406;SDS011;3236;51.022;6.818;2022-08-19T14:42:38;11.07;;;4.22;;
6406;SDS011;3236;51.022;6.818;2022-08-19T14:45:06;8.70;;;4.03;;
6406;SDS011;3236;51.022;6.818;2022-08-19T14:47:34;9.93;;;3.65;;
6406;SDS011;3236;51.022;6.818;2022-08-19T14:50:01;4.65;;;3.03;;
6406;SDS011;3236;51.022;6.818;2022-08-19T14:52:28;5.78;;;3.40;;
6406;SDS011;3236;51.022;6.818;2022-08-19T14:54:57;4.88;;;3.25;;
6406;SDS011;3236;51.022;6.818;2022-08-19T14:57:24;9.43;;;3.88;;
6406;SDS011;3236;51.022;6.818;2022-08-19T14:59:51;5.43;;;2.78;;
6406;SDS011;3236;51.022;6.818;2022-08-19T15:02:18;3.40;;;2.70;;
6406;SDS011;3236;51.022;6.818;2022-08-19T15:04:45;4.18;;;2.88;;
6406;SDS011;3236;51.022;6.818;2022-08-19T15:07:12;5.47;;;2.85;;
6406;SDS011;3236;51.022;6.818;2022-08-19T15:09:39;8.02;;;3.30;;
6406;SDS011;3236;51.022;6.818;2022-08-19T15:12:08;7.10;;;2.30;;